Time;durP1;ratioP1;P1;durP2;ratioP2;P2;SDS_P1;SDS_P2;PMS_P1;PMS_P2;Temp;Humidity;BMP_temperature;BMP_pressure;BME280_temperature;BME280_humidity;BME280_pressure;Samples;Min_cycle;Max_cycle;Signal;HPM_P1;HPM_P2
2021/08/12 00:01:52;;;;;;;7.88;6.95;;;17.20;99.90;;;;;;5073134;28;20047;-71
2021/08/12 00:04:19;;;;;;;8.35;7.65;;;17.20;99.90;;;;;;5073092;28;20044;-71
2021/08/12 00:06:46;;;;;;;7.40;6.80;;;17.20;99.90;;;;;;5073000;28;20032;-71
2021/08/12 00:09:11;;;;;;;8.20;7.40;;;17.20;99.90;;;;;;5072187;28;20036;-71
2021/08/12 00:11:38;;;;;;;8.32;7.63;;;17.10;99.90;;;;;;5072914;28;20074;-71
2021/08/12 00:14:04;;;;;;;8.63;7.70;;;17.10;99.90;;;;;;5071928;28;20492;-71
2021/08/12 00:16:30;;;;;;;7.50;6.85;;;17.10;99.90;;;;;;5074788;28;20085;-71
2021/08/12 00:18:55;;;;;;;7.32;6.72;;;17.00;99.90;;;;;;5077091;28;20115;-71
2021/08/12 00:21:25;;;;;;;9.75;8.95;;;17.00;99.90;;;;;;5077459;28;20040;-71
2021/08/12 00:23:54;;;;;;;12.13;11.02;;;16.90;99.90;;;;;;5077257;28;20052;-71
2021/08/12 00:26:20;;;;;;;13.63;12.43;;;16.90;99.90;;;;;;5076823;28;20048;-71
2021/08/12 00:28:46;;;;;;;16.92;15.05;;;16.80;99.90;;;;;;5076610;28;20037;-71
2021/08/12 00:31:11;;;;;;;17.92;16.13;;;16.80;99.90;;;;;;5077052;28;20060;-71
2021/08/12 00:33:37;;;;;;;17.55;15.75;;;16.70;99.90;;;;;;5076878;28;20516;-71
2021/08/12 00:36:04;;;;;;;20.48;18.17;;;16.60;99.90;;;;;;5076671;28;20047;-71
2021/08/12 00:38:30;;;;;;;19.75;17.65;;;16.60;99.90;;;;;;5076856;28;20119;-71
2021/08/12 00:40:55;;;;;;;20.08;17.98;;;16.50;99.90;;;;;;5076540;28;20124;-71
2021/08/12 00:43:21;;;;;;;18.83;16.83;;;16.50;99.90;;;;;;5076929;28;20041;-71
2021/08/12 00:45:47;;;;;;;28.58;16.58;;;16.40;99.90;;;;;;5077123;28;20044;-71
2021/08/12 00:48:13;;;;;;;17.10;15.27;;;16.30;99.90;;;;;;5076863;28;20047;-71
2021/08/12 00:50:43;;;;;;;13.73;12.30;;;16.20;99.90;;;;;;5076512;28;20059;-71
2021/08/12 00:53:10;;;;;;;16.67;15.15;;;16.20;99.90;;;;;;5076826;28;20050;-71
2021/08/12 00:55:43;;;;;;;16.13;14.65;;;16.20;99.90;;;;;;5076500;28;20093;-71
2021/08/12 00:58:15;;;;;;;16.00;14.43;;;16.20;99.90;;;;;;5076700;28;20085;-71
2021/08/12 01:00:43;;;;;;;16.10;14.63;;;16.20;99.90;;;;;;5076164;28;20389;-71
2021/08/12 01:03:14;;;;;;;18.20;16.63;;;16.20;99.90;;;;;;5076334;28;20074;-71
2021/08/12 01:05:52;;;;;;;18.17;16.58;;;16.20;99.90;;;;;;5076134;28;20036;-71
2021/08/12 01:08:33;;;;;;;19.02;17.33;;;16.20;99.90;;;;;;5076516;28;20039;-71
2021/08/12 01:11:33;;;;;;;20.63;18.63;;;16.20;99.90;;;;;;5076368;28;20083;-71
2021/08/12 01:14:22;;;;;;;21.25;19.25;;;16.20;99.90;;;;;;5076128;28;20123;-71
2021/08/12 01:17:07;;;;;;;20.30;18.42;;;16.20;99.90;;;;;;5076417;28;20119;-71
2021/08/12 01:20:01;;;;;;;20.35;18.55;;;16.20;99.90;;;;;;5076038;28;20399;-70
2021/08/12 01:22:29;;;;;;;19.95;18.15;;;16.20;99.90;;;;;;5075936;28;20139;-71
2021/08/12 01:24:58;;;;;;;19.95;18.15;;;16.10;99.90;;;;;;5075873;28;20045;-71
2021/08/12 01:27:29;;;;;;;20.30;18.40;;;16.20;99.90;;;;;;5076043;28;20040;-71
2021/08/12 01:30:12;;;;;;;20.48;18.55;;;16.10;99.90;;;;;;5075476;28;20041;-71
2021/08/12 01:33:15;;;;;;;16.80;15.40;;;16.00;99.90;;;;;;5075681;28;20408;-71
2021/08/12 01:35:41;;;;;;;16.80;15.40;;;15.90;99.90;;;;;;5075937;28;20091;-71
2021/08/12 01:38:15;;;;;;;17.35;15.95;;;15.90;99.90;;;;;;5075508;28;20639;-71
2021/08/12 01:40:42;;;;;;;16.70;15.30;;;16.00;99.90;;;;;;5075556;28;20079;-71
2021/08/12 01:43:15;;;;;;;17.02;15.60;;;16.00;99.90;;;;;;5075653;28;20032;-71
2021/08/12 01:45:41;;;;;;;16.52;15.13;;;16.00;99.90;;;;;;5075355;28;20036;-71
2021/08/12 01:48:08;;;;;;;16.83;15.43;;;15.90;99.90;;;;;;5075414;28;20433;-71
2021/08/12 01:50:35;;;;;;;17.23;14.65;;;15.90;99.90;;;;;;5075154;28;20040;-71
2021/08/12 01:53:03;;;;;;;16.88;15.38;;;15.80;99.90;;;;;;5075545;28;20040;-71
2021/08/12 01:55:31;;;;;;;17.00;15.50;;;15.80;99.90;;;;;;5074022;28;20520;-71
2021/08/12 01:57:59;;;;;;;17.05;15.55;;;15.80;99.90;;;;;;5075605;28;20040;-71
2021/08/12 02:00:28;;;;;;;17.90;16.38;;;15.80;99.90;;;;;;5075020;28;20036;-70
2021/08/12 02:02:56;;;;;;;15.77;14.48;;;15.80;99.90;;;;;;5075204;28;20155;-71
2021/08/12 02:05:22;;;;;;;14.88;13.68;;;15.70;99.90;;;;;;5074977;28;20032;-71
2021/08/12 02:07:48;;;;;;;15.70;14.40;;;15.70;99.90;;;;;;5075356;28;20040;-71
2021/08/12 02:10:15;;;;;;;14.63;13.43;;;15.70;99.90;;;;;;5074714;28;20044;-71
2021/08/12 02:12:41;;;;;;;14.43;13.23;;;15.70;99.90;;;;;;5074850;28;20079;-71
2021/08/12 02:15:08;;;;;;;13.40;12.30;;;15.70;99.90;;;;;;5075546;28;20068;-71
2021/08/12 02:17:34;;;;;;;13.45;12.35;;;15.60;99.90;;;;;;5074989;28;20064;-71
2021/08/12 02:20:11;;;;;;;13.70;12.60;;;15.60;99.90;;;;;;5074703;28;20047;-71
2021/08/12 02:22:58;;;;;;;12.77;11.77;;;15.60;99.90;;;;;;5074809;28;20032;-71
2021/08/12 02:25:33;;;;;;;10.85;9.95;;;15.60;99.90;;;;;;5075102;28;20112;-71
2021/08/12 02:28:03;;;;;;;11.55;10.65;;;15.60;99.90;;;;;;5074939;28;20039;-71
2021/08/12 02:30:34;;;;;;;10.45;9.52;;;15.60;99.90;;;;;;5074069;28;20511;-70
2021/08/12 02:33:01;;;;;;;10.05;9.25;;;15.60;99.90;;;;;;5074689;28;20040;-71
2021/08/12 02:35:27;;;;;;;9.93;9.10;;;15.50;99.90;;;;;;5074793;28;20393;-71
2021/08/12 02:37:57;;;;;;;9.85;9.15;;;15.50;99.90;;;;;;5074538;28;20040;-71
2021/08/12 02:40:25;;;;;;;10.93;10.07;;;15.40;99.90;;;;;;5074296;28;20052;-71
2021/08/12 02:42:52;;;;;;;15.23;12.63;;;15.40;99.90;;;;;;5074723;28;20079;-71
2021/08/12 02:45:18;;;;;;;12.98;11.88;;;15.40;99.90;;;;;;5074615;28;20450;-71
2021/08/12 02:47:44;;;;;;;11.45;10.30;;;15.30;99.90;;;;;;5074301;28;20057;-71
2021/08/12 02:50:10;;;;;;;11.88;10.77;;;15.30;99.90;;;;;;5073918;28;20041;-71
2021/08/12 02:52:40;;;;;;;10.50;9.60;;;15.30;99.90;;;;;;5074018;28;20036;-71
2021/08/12 02:55:07;;;;;;;10.00;9.05;;;15.30;99.90;;;;;;5073125;28;20137;-71
2021/08/12 02:57:34;;;;;;;9.30;8.50;;;15.30;99.90;;;;;;5074291;28;20041;-71
2021/08/12 03:00:01;;;;;;;9.43;8.63;;;15.30;99.90;;;;;;5073896;28;20078;-71
2021/08/12 03:02:28;;;;;;;8.18;7.47;;;15.20;99.90;;;;;;5073997;28;20128;-71
2021/08/12 03:04:54;;;;;;;8.60;7.82;;;15.30;99.90;;;;;;5073919;28;20376;-71
2021/08/12 03:07:22;;;;;;;8.95;8.05;;;15.20;99.90;;;;;;5072699;28;20051;-70
2021/08/12 03:09:49;;;;;;;8.15;7.35;;;15.20;99.90;;;;;;5073693;28;20059;-70
2021/08/12 03:12:18;;;;;;;8.40;7.70;;;15.20;99.90;;;;;;5073698;28;20131;-71
2021/08/12 03:14:44;;;;;;;9.20;8.40;;;15.30;99.90;;;;;;5074023;28;20115;-71
2021/08/12 03:17:11;;;;;;;8.40;7.70;;;15.30;99.90;;;;;;5072440;28;20068;-71
2021/08/12 03:19:39;;;;;;;8.50;7.60;;;15.30;99.90;;;;;;5073851;28;20494;-71
2021/08/12 03:22:07;;;;;;;8.38;7.68;;;15.30;99.90;;;;;;5073989;28;20117;-71
2021/08/12 03:24:35;;;;;;;7.93;7.22;;;15.30;99.90;;;;;;5074063;28;20384;-71
2021/08/12 03:27:02;;;;;;;8.05;7.35;;;15.30;99.90;;;;;;5074019;28;20040;-70
2021/08/12 03:29:28;;;;;;;7.75;7.05;;;15.30;99.90;;;;;;5073396;28;20047;-71
2021/08/12 03:31:54;;;;;;;8.13;7.32;;;15.20;99.90;;;;;;5073572;28;20040;-71
2021/08/12 03:34:20;;;;;;;7.60;6.90;;;15.20;99.90;;;;;;5073668;28;20147;-71
2021/08/12 03:36:46;;;;;;;7.10;6.50;;;15.10;99.90;;;;;;5073535;28;20166;-71
2021/08/12 03:39:11;;;;;;;6.75;6.15;;;15.10;99.90;;;;;;5073288;28;20068;-71
2021/08/12 03:41:37;;;;;;;8.25;7.15;;;15.10;99.90;;;;;;5073322;28;20162;-71
2021/08/12 03:44:04;;;;;;;7.00;6.40;;;15.20;99.90;;;;;;5073910;28;20044;-71
2021/08/12 03:46:29;;;;;;;7.03;6.40;;;15.20;99.90;;;;;;5073654;28;20047;-71
2021/08/12 03:48:55;;;;;;;8.23;7.50;;;15.20;99.90;;;;;;5073048;28;20397;-71
2021/08/12 03:51:21;;;;;;;8.60;7.90;;;15.20;99.90;;;;;;5073350;28;20036;-71
2021/08/12 03:53:46;;;;;;;7.80;7.10;;;15.20;99.90;;;;;;5073228;28;20417;-71
2021/08/12 03:56:12;;;;;;;8.90;8.10;;;15.20;99.90;;;;;;5073124;28;20165;-71
2021/08/12 03:58:40;;;;;;;9.52;8.35;;;15.20;99.90;;;;;;5073043;28;20115;-71
2021/08/12 04:01:07;;;;;;;8.68;7.78;;;15.20;99.90;;;;;;5073254;28;20051;-70
2021/08/12 04:03:33;;;;;;;10.77;9.77;;;15.20;99.90;;;;;;5073437;28;20029;-71
2021/08/12 04:05:59;;;;;;;8.73;7.93;;;15.20;99.90;;;;;;5073133;28;20516;-70
2021/08/12 04:08:25;;;;;;;10.60;9.60;;;15.10;99.90;;;;;;5073315;28;20033;-71
2021/08/12 04:10:51;;;;;;;10.40;9.35;;;15.20;99.90;;;;;;5072810;28;20047;-71
2021/08/12 04:13:16;;;;;;;10.35;9.38;;;15.20;99.90;;;;;;5072984;28;20041;-71
2021/08/12 04:15:42;;;;;;;11.80;10.55;;;15.30;99.90;;;;;;5073116;28;20108;-71
2021/08/12 04:18:08;;;;;;;11.10;9.95;;;15.20;99.90;;;;;;5073216;28;20120;-70
2021/08/12 04:20:34;;;;;;;12.40;9.80;;;15.30;99.90;;;;;;5071999;28;20537;-71
2021/08/12 04:23:00;;;;;;;11.50;10.40;;;15.30;99.90;;;;;;5073182;28;20101;-70
2021/08/12 04:25:25;;;;;;;11.32;10.10;;;15.30;99.90;;;;;;5072863;28;20111;-71
2021/08/12 04:27:51;;;;;;;12.77;10.02;;;15.30;99.90;;;;;;5073522;28;20128;-71
2021/08/12 04:30:17;;;;;;;11.88;10.57;;;15.30;99.90;;;;;;5072814;28;20120;-71
2021/08/12 04:32:43;;;;;;;12.38;11.10;;;15.30;99.90;;;;;;5072782;28;20033;-71
2021/08/12 04:35:09;;;;;;;14.35;12.88;;;15.30;99.90;;;;;;5073203;28;20037;-71
2021/08/12 04:37:43;;;;;;;12.40;11.10;;;15.20;99.90;;;;;;5073414;28;20037;-71
2021/08/12 04:40:20;;;;;;;12.77;11.48;;;15.30;99.90;;;;;;5072668;28;20107;-71
2021/08/12 04:42:49;;;;;;;14.15;12.13;;;15.20;99.90;;;;;;5072810;28;20116;-71
2021/08/12 04:45:16;;;;;;;14.80;13.30;;;15.20;99.90;;;;;;5073010;28;20489;-71
2021/08/12 04:47:42;;;;;;;15.20;13.55;;;15.30;99.90;;;;;;5072809;28;20036;-71
2021/08/12 04:50:10;;;;;;;14.57;12.80;;;15.30;99.90;;;;;;5072405;28;20040;-71
2021/08/12 04:52:39;;;;;;;14.45;12.30;;;15.30;99.90;;;;;;5072656;28;20043;-71
2021/08/12 04:55:07;;;;;;;14.63;12.63;;;15.30;99.90;;;;;;5073386;28;20032;-71
2021/08/12 04:57:34;;;;;;;15.13;13.63;;;15.30;99.90;;;;;;5072924;28;20066;-71
2021/08/12 05:00:01;;;;;;;14.23;12.85;;;15.40;99.90;;;;;;5072430;28;20431;-71
2021/08/12 05:02:27;;;;;;;18.48;13.50;;;15.40;99.90;;;;;;5074499;28;20060;-71
2021/08/12 05:04:53;;;;;;;15.65;13.85;;;15.50;99.90;;;;;;5076443;28;20377;-70
2021/08/12 05:07:18;;;;;;;16.25;14.68;;;15.50;99.90;;;;;;5076636;28;20036;-71
2021/08/12 05:09:44;;;;;;;15.32;13.52;;;15.50;99.90;;;;;;5076252;28;20043;-71
2021/08/12 05:12:10;;;;;;;14.98;13.48;;;15.50;99.90;;;;;;5075940;28;20107;-70
2021/08/12 05:14:36;;;;;;;15.82;14.20;;;15.50;99.90;;;;;;5075752;28;20045;-70
2021/08/12 05:17:02;;;;;;;15.98;14.38;;;15.60;99.90;;;;;;5076403;28;20040;-71
2021/08/12 05:19:29;;;;;;;16.02;14.43;;;15.70;99.90;;;;;;5075914;28;20132;-71
2021/08/12 05:21:54;;;;;;;17.20;13.55;;;15.70;99.90;;;;;;5075775;28;20119;-71
2021/08/12 05:24:20;;;;;;;17.77;15.05;;;15.80;99.90;;;;;;5076275;28;20083;-71
2021/08/12 05:26:46;;;;;;;19.67;14.65;;;15.80;99.90;;;;;;5075987;28;20037;-71
2021/08/12 05:29:11;;;;;;;18.90;16.45;;;15.70;99.90;;;;;;5075518;28;20040;-71
2021/08/12 05:31:41;;;;;;;17.90;14.32;;;15.70;99.90;;;;;;5075867;28;20047;-71
2021/08/12 05:34:07;;;;;;;17.08;14.60;;;15.70;99.90;;;;;;5075744;28;20036;-71
2021/08/12 05:36:33;;;;;;;16.90;15.13;;;15.70;99.90;;;;;;5075682;28;20052;-70
2021/08/12 05:38:59;;;;;;;18.60;15.85;;;15.70;99.90;;;;;;5075237;28;20040;-71
2021/08/12 05:41:24;;;;;;;18.55;14.48;;;15.70;99.90;;;;;;5075743;28;20044;-70
2021/08/12 05:43:50;;;;;;;18.45;15.25;;;15.70;99.90;;;;;;5075832;28;20047;-71
2021/08/12 05:46:16;;;;;;;19.85;15.10;;;15.70;99.90;;;;;;5075478;28;20392;-71
2021/08/12 05:48:41;;;;;;;19.38;15.38;;;15.80;99.90;;;;;;5075309;28;20044;-71
2021/08/12 05:51:08;;;;;;;21.77;16.15;;;15.90;99.90;;;;;;5075218;28;20104;-71
2021/08/12 05:53:34;;;;;;;17.55;15.55;;;16.00;99.90;;;;;;5075537;28;20036;-71
2021/08/12 05:56:02;;;;;;;17.17;14.88;;;16.20;99.90;;;;;;5075439;28;20047;-71
2021/08/12 05:58:30;;;;;;;18.70;14.63;;;16.30;99.90;;;;;;5074932;28;20036;-71
2021/08/12 06:00:56;;;;;;;16.67;14.98;;;16.60;99.90;;;;;;5075243;28;20086;-71
2021/08/12 06:03:22;;;;;;;18.33;16.45;;;16.90;99.90;;;;;;5075390;28;20036;-71
2021/08/12 06:05:48;;;;;;;19.30;15.02;;;17.10;99.90;;;;;;5075051;28;20037;-71
2021/08/12 06:08:15;;;;;;;14.40;12.90;;;17.30;99.90;;;;;;5075260;28;20074;-70
2021/08/12 06:10:42;;;;;;;16.30;14.40;;;17.60;99.90;;;;;;5074773;28;20044;-70
2021/08/12 06:13:08;;;;;;;14.90;13.10;;;17.80;99.90;;;;;;5074193;28;20041;-69
2021/08/12 06:15:35;;;;;;;14.57;12.98;;;18.00;99.90;;;;;;5075091;28;20116;-69
2021/08/12 06:18:06;;;;;;;15.60;13.98;;;17.90;99.90;;;;;;5074800;28;20067;-69
2021/08/12 06:20:36;;;;;;;16.52;14.70;;;17.80;99.90;;;;;;5074667;28;20048;-70
2021/08/12 06:23:05;;;;;;;17.08;14.85;;;17.70;99.90;;;;;;5075204;28;20086;-70
2021/08/12 06:25:34;;;;;;;16.60;13.10;;;17.80;99.90;;;;;;5073497;28;20098;-70
2021/08/12 06:28:00;;;;;;;16.92;14.52;;;18.00;99.90;;;;;;5074691;28;20097;-70
2021/08/12 06:30:27;;;;;;;15.95;14.25;;;18.00;99.90;;;;;;5074169;28;20071;-70
2021/08/12 06:32:52;;;;;;;18.52;14.35;;;17.90;99.90;;;;;;5074638;28;20457;-69
2021/08/12 06:35:19;;;;;;;16.23;14.13;;;17.80;99.90;;;;;;5074626;28;20488;-70
2021/08/12 06:37:50;;;;;;;15.82;14.23;;;17.80;99.90;;;;;;5074640;28;20040;-70
2021/08/12 06:40:19;;;;;;;18.08;16.17;;;17.90;99.90;;;;;;5074080;28;20492;-71
2021/08/12 06:42:45;;;;;;;18.27;15.93;;;17.80;99.90;;;;;;5074520;28;20036;-71
2021/08/12 06:45:12;;;;;;;20.20;15.77;;;17.80;99.90;;;;;;5074306;28;20407;-71
2021/08/12 06:47:38;;;;;;;17.80;15.13;;;17.80;99.90;;;;;;5074274;28;20112;-71
2021/08/12 06:50:04;;;;;;;18.10;16.15;;;17.80;99.90;;;;;;5074337;28;20479;-70
2021/08/12 06:52:33;;;;;;;17.52;15.60;;;17.80;99.90;;;;;;5074408;28;20132;-70
2021/08/12 06:55:00;;;;;;;17.38;15.68;;;17.90;99.90;;;;;;5074541;28;20475;-70
2021/08/12 06:57:26;;;;;;;19.20;17.05;;;17.90;99.90;;;;;;5074150;28;20090;-71
2021/08/12 06:59:52;;;;;;;20.25;16.67;;;17.90;99.90;;;;;;5073954;28;20040;-70
2021/08/12 07:02:18;;;;;;;19.98;17.38;;;17.90;99.90;;;;;;5073987;28;20054;-71
2021/08/12 07:04:44;;;;;;;18.10;16.17;;;18.00;99.90;;;;;;5074140;28;20471;-71
2021/08/12 07:07:10;;;;;;;16.50;14.80;;;18.00;99.90;;;;;;5073831;28;20036;-72
2021/08/12 07:09:37;;;;;;;21.05;17.52;;;18.10;99.90;;;;;;5073274;28;20049;-71
2021/08/12 07:12:03;;;;;;;20.15;17.50;;;18.20;99.90;;;;;;5073334;28;20068;-72
2021/08/12 07:14:28;;;;;;;21.70;18.15;;;18.30;99.90;;;;;;5071633;28;20071;-72
2021/08/12 07:16:54;;;;;;;20.05;18.05;;;18.30;99.90;;;;;;5073159;28;20040;-72
2021/08/12 07:19:20;;;;;;;22.23;18.85;;;18.40;99.90;;;;;;5072904;28;20040;-72
2021/08/12 07:21:46;;;;;;;20.88;18.67;;;18.60;99.90;;;;;;5073012;28;20072;-72
2021/08/12 07:24:12;;;;;;;22.42;19.67;;;18.90;99.90;;;;;;5073096;28;20036;-72
2021/08/12 07:26:37;;;;;;;19.15;17.13;;;19.20;99.90;;;;;;5072949;28;20488;-72
2021/08/12 07:29:03;;;;;;;17.05;15.25;;;19.50;99.90;;;;;;5073752;28;20044;-72
2021/08/12 07:31:29;;;;;;;16.35;14.43;;;19.50;99.90;;;;;;5073392;28;20209;-72
2021/08/12 07:33:55;;;;;;;16.88;13.85;;;19.70;99.90;;;;;;5073741;28;20075;-72
2021/08/12 07:36:20;;;;;;;18.50;16.23;;;20.10;99.90;;;;;;5073620;28;20397;-72
2021/08/12 07:38:46;;;;;;;19.95;15.02;;;20.40;99.90;;;;;;5073220;28;20040;-72
2021/08/12 07:41:12;;;;;;;16.08;13.77;;;20.70;99.90;;;;;;5073699;28;20051;-72
2021/08/12 07:43:40;;;;;;;15.75;13.40;;;21.10;99.90;;;;;;5073486;28;20036;-72
2021/08/12 07:46:05;;;;;;;15.10;12.43;;;21.50;99.90;;;;;;5072305;28;20045;-72
2021/08/12 07:48:31;;;;;;;14.73;13.10;;;21.80;99.90;;;;;;5072945;28;20041;-73
2021/08/12 07:50:57;;;;;;;15.48;12.57;;;22.00;99.90;;;;;;5072423;28;20048;-72
2021/08/12 07:53:23;;;;;;;13.40;11.43;;;22.40;99.90;;;;;;5073174;28;20087;-72
2021/08/12 07:55:49;;;;;;;14.07;12.00;;;22.80;99.90;;;;;;5073527;28;20139;-72
2021/08/12 07:58:15;;;;;;;12.57;10.57;;;22.80;99.90;;;;;;5072565;28;20098;-72
2021/08/12 08:00:43;;;;;;;14.27;12.25;;;23.20;99.90;;;;;;5071871;28;20517;-72
2021/08/12 08:03:09;;;;;;;16.25;11.95;;;23.20;99.90;;;;;;5073472;28;20048;-72
2021/08/12 08:05:35;;;;;;;15.63;11.55;;;23.10;99.90;;;;;;5073098;28;20043;-72
2021/08/12 08:08:00;;;;;;;17.50;10.27;;;23.20;99.90;;;;;;5073551;28;20542;-72
2021/08/12 08:10:26;;;;;;;17.55;11.68;;;23.30;99.90;;;;;;5071474;28;20032;-72
2021/08/12 08:12:53;;;;;;;14.98;10.70;;;23.40;99.90;;;;;;5072944;28;20075;-72
2021/08/12 08:15:20;;;;;;;13.77;10.45;;;23.70;99.90;;;;;;5073270;28;20043;-72
2021/08/12 08:17:46;;;;;;;11.50;9.10;;;23.90;99.90;;;;;;5073217;28;20090;-72
2021/08/12 08:20:13;;;;;;;13.50;11.52;;;24.10;99.90;;;;;;5072948;28;20032;-70
2021/08/12 08:22:39;;;;;;;14.50;11.65;;;24.10;99.90;;;;;;5072865;28;20033;-72
2021/08/12 08:25:07;;;;;;;14.50;11.70;;;24.10;99.90;;;;;;5072880;28;20040;-72
2021/08/12 08:27:32;;;;;;;15.40;11.90;;;23.90;99.90;;;;;;5073050;28;20048;-72
2021/08/12 08:29:58;;;;;;;16.88;12.50;;;23.80;99.90;;;;;;5072494;28;20091;-72
2021/08/12 08:32:25;;;;;;;15.57;11.45;;;23.70;99.90;;;;;;5072870;28;20041;-72
2021/08/12 08:34:52;;;;;;;13.82;11.98;;;23.60;99.90;;;;;;5073013;28;20044;-72
2021/08/12 08:37:18;;;;;;;16.40;12.35;;;23.80;99.90;;;;;;5074414;28;20111;-72
2021/08/12 08:39:44;;;;;;;17.25;13.32;;;23.80;99.90;;;;;;5076834;28;20044;-72
2021/08/12 08:42:12;;;;;;;15.10;13.10;;;23.70;99.90;;;;;;5077329;28;20519;-72
2021/08/12 08:44:43;;;;;;;15.93;13.63;;;23.70;99.90;;;;;;5076626;28;20041;-72
2021/08/12 08:47:10;;;;;;;15.35;12.10;;;23.80;99.90;;;;;;5075888;28;20057;-72
2021/08/12 08:49:38;;;;;;;15.00;11.52;;;23.80;99.90;;;;;;5076101;28;20108;-72
2021/08/12 08:52:07;;;;;;;15.32;11.25;;;23.90;99.90;;;;;;5076283;28;20408;-72
2021/08/12 08:54:34;;;;;;;15.20;10.73;;;24.00;99.90;;;;;;5076728;28;20044;-72
2021/08/12 08:57:00;;;;;;;18.33;11.30;;;24.40;99.90;;;;;;5076332;28;20044;-72
2021/08/12 08:59:26;;;;;;;20.92;11.70;;;24.50;99.90;;;;;;5076087;28;20032;-72
2021/08/12 09:01:52;;;;;;;14.57;10.57;;;24.50;99.90;;;;;;5076070;28;20534;-72
2021/08/12 09:04:18;;;;;;;16.45;10.15;;;24.50;99.90;;;;;;5076257;28;20032;-72
2021/08/12 09:06:44;;;;;;;11.07;9.18;;;24.50;99.90;;;;;;5076153;28;20507;-72
2021/08/12 09:09:10;;;;;;;12.75;9.85;;;24.50;99.90;;;;;;5076155;28;20135;-70
2021/08/12 09:11:37;;;;;;;13.75;9.68;;;24.60;99.90;;;;;;5076084;28;20370;-71
2021/08/12 09:14:28;;;;;;;12.75;7.60;;;24.50;99.90;;;;;;5076073;28;20036;-72
2021/08/12 09:16:54;;;;;;;10.00;7.75;;;24.60;99.90;;;;;;5076188;28;20442;-72
2021/08/12 09:19:24;;;;;;;9.45;6.97;;;24.50;99.90;;;;;;5075694;28;20040;-70
2021/08/12 09:21:59;;;;;;;11.20;7.68;;;24.50;99.90;;;;;;5075909;28;20127;-69
2021/08/12 09:24:25;;;;;;;9.25;6.43;;;24.40;99.80;;;;;;5075955;28;20048;-70
2021/08/12 09:26:52;;;;;;;7.50;6.63;;;24.60;99.90;;;;;;5075983;28;20085;-70
2021/08/12 09:29:29;;;;;;;11.23;5.78;;;24.80;99.90;;;;;;5075389;28;20473;-69
2021/08/12 09:32:03;;;;;;;11.07;6.22;;;24.90;97.20;;;;;;5075774;28;20441;-70
2021/08/12 09:34:46;;;;;;;9.10;5.43;;;24.90;99.10;;;;;;5075736;28;20041;-70
2021/08/12 09:37:13;;;;;;;8.13;4.97;;;25.10;97.80;;;;;;5075752;28;20032;-70
2021/08/12 09:39:41;;;;;;;7.30;5.43;;;25.00;99.10;;;;;;5075269;28;20064;-69
2021/08/12 09:42:08;;;;;;;7.53;5.00;;;25.00;97.60;;;;;;5075696;28;20165;-73
2021/08/12 09:44:34;;;;;;;7.45;4.78;;;25.00;97.40;;;;;;5075510;28;20060;-74
2021/08/12 09:47:04;;;;;;;7.53;4.70;;;25.00;97.10;;;;;;5075415;28;20040;-73
2021/08/12 09:49:45;;;;;;;7.70;4.60;;;25.00;95.60;;;;;;5073650;28;20481;-75
2021/08/12 09:52:25;;;;;;;6.70;4.90;;;25.00;95.40;;;;;;5075423;28;20044;-77
2021/08/12 09:54:57;;;;;;;8.05;5.22;;;24.90;95.70;;;;;;5075571;28;20074;-78
2021/08/12 09:57:26;;;;;;;6.20;4.65;;;24.90;96.20;;;;;;5075327;28;20044;-75
2021/08/12 09:59:53;;;;;;;8.30;4.80;;;24.90;96.70;;;;;;5075331;28;20560;-74
2021/08/12 10:02:19;;;;;;;6.13;4.00;;;24.80;96.00;;;;;;5075379;28;20040;-75
2021/08/12 10:04:45;;;;;;;6.60;4.90;;;24.90;96.90;;;;;;5075693;28;20052;-75
2021/08/12 10:07:41;;;;;;;7.10;5.28;;;24.80;96.70;;;;;;5075086;28;20439;-75
2021/08/12 10:10:28;;;;;;;7.40;5.03;;;24.70;95.70;;;;;;5074901;28;20036;-74
2021/08/12 10:12:59;;;;;;;7.90;4.68;;;24.70;96.20;;;;;;5073722;28;20040;-75
2021/08/12 10:15:34;;;;;;;6.38;5.05;;;24.80;97.30;;;;;;5074818;28;20032;-75
2021/08/12 10:18:01;;;;;;;7.95;5.22;;;24.90;98.00;;;;;;5075034;28;20056;-77
2021/08/12 10:20:30;;;;;;;7.68;6.00;;;25.00;97.60;;;;;;5073812;28;20045;-77
2021/08/12 10:22:57;;;;;;;6.43;5.15;;;24.90;97.40;;;;;;5073766;28;20041;-73
2021/08/12 10:25:28;;;;;;;7.32;5.90;;;24.80;96.90;;;;;;5074991;28;20041;-76
2021/08/12 10:28:03;;;;;;;8.52;5.75;;;24.90;96.80;;;;;;5074636;28;20502;-78
2021/08/12 10:30:30;;;;;;;11.05;5.95;;;24.70;96.50;;;;;;5074224;28;20029;-77
2021/08/12 10:33:01;;;;;;;9.43;6.43;;;24.90;97.20;;;;;;5074851;28;20072;-77
2021/08/12 10:35:30;;;;;;;9.30;5.18;;;24.80;96.70;;;;;;5074891;28;20037;-77
2021/08/12 10:37:56;;;;;;;8.85;5.70;;;24.70;96.40;;;;;;5074607;28;20124;-77
2021/08/12 10:40:25;;;;;;;8.70;6.00;;;24.70;96.00;;;;;;5074111;28;20098;-77
2021/08/12 10:42:52;;;;;;;10.32;5.80;;;24.60;96.50;;;;;;5074357;28;20068;-75
2021/08/12 10:45:20;;;;;;;7.68;4.45;;;24.50;97.50;;;;;;5073266;28;20480;-77
2021/08/12 10:47:55;;;;;;;6.63;4.88;;;24.40;97.30;;;;;;5074322;28;20032;-77
2021/08/12 10:50:24;;;;;;;9.15;4.97;;;24.50;97.10;;;;;;5073990;28;20500;-77
2021/08/12 10:53:09;;;;;;;5.70;4.88;;;24.50;98.00;;;;;;5074440;28;20071;-77
2021/08/12 10:55:35;;;;;;;8.32;4.80;;;24.50;97.00;;;;;;5074779;28;20126;-74
2021/08/12 10:58:22;;;;;;;5.88;4.78;;;24.50;96.80;;;;;;5074114;28;20033;-74
2021/08/12 11:00:58;;;;;;;6.95;5.22;;;24.50;97.70;;;;;;5073579;28;20465;-75
2021/08/12 11:03:33;;;;;;;9.20;5.15;;;24.40;98.00;;;;;;5073988;28;20043;-76
2021/08/12 11:06:20;;;;;;;7.45;5.38;;;24.40;97.50;;;;;;5073871;28;20048;-75
2021/08/12 11:08:52;;;;;;;9.73;5.45;;;24.40;98.40;;;;;;5074024;28;20036;-74
2021/08/12 11:11:21;;;;;;;6.97;6.07;;;24.40;98.60;;;;;;5073517;28;20050;-77
2021/08/12 11:13:48;;;;;;;5.82;4.70;;;24.40;99.40;;;;;;5073973;28;20036;-77
2021/08/12 11:16:14;;;;;;;7.72;4.80;;;24.60;99.30;;;;;;5074327;28;20480;-76
2021/08/12 11:18:44;;;;;;;6.72;4.38;;;24.60;97.30;;;;;;5072154;28;20516;-76
2021/08/12 11:21:29;;;;;;;7.82;4.72;;;24.40;96.00;;;;;;5073786;28;20046;-74
2021/08/12 11:24:04;;;;;;;5.97;4.40;;;24.30;97.90;;;;;;5073755;28;20040;-74
2021/08/12 11:26:45;;;;;;;6.78;4.40;;;24.20;98.60;;;;;;5073543;28;20040;-74
2021/08/12 11:29:22;;;;;;;5.47;3.97;;;24.20;99.00;;;;;;5073576;28;20493;-74
2021/08/12 11:31:48;;;;;;;8.70;5.65;;;24.20;99.20;;;;;;5073380;28;20036;-74
2021/08/12 11:34:28;;;;;;;9.02;4.97;;;24.20;98.70;;;;;;5073447;28;20576;-74
2021/08/12 11:37:05;;;;;;;10.40;5.20;;;24.40;99.20;;;;;;5073421;28;20059;-75
2021/08/12 11:39:31;;;;;;;;;;;24.40;97.50;;;;;;5073639;28;20052;-76
2021/08/12 11:41:59;;;;;;;8.18;5.15;;;24.30;98.20;;;;;;5072368;28;19970;-76
2021/08/12 11:44:26;;;;;;;7.88;5.43;;;24.40;99.10;;;;;;5072134;28;20070;-75
2021/08/12 11:46:58;;;;;;;7.35;5.00;;;24.40;98.30;;;;;;5072795;28;20060;-76
2021/08/12 11:49:29;;;;;;;10.80;5.05;;;24.40;97.90;;;;;;5072063;28;20036;-73
2021/08/12 11:52:00;;;;;;;;;;;24.40;99.00;;;;;;5071253;28;20052;-75
2021/08/12 11:54:38;;;;;;;6.88;5.57;;;24.40;98.60;;;;;;5072116;28;19938;-75
2021/08/12 11:57:16;;;;;;;11.25;5.45;;;24.40;98.70;;;;;;5070422;28;20040;-76
2021/08/12 11:59:42;;;;;;;8.50;5.60;;;24.40;99.20;;;;;;5076337;28;20043;-76
2021/08/12 12:02:12;;;;;;;6.82;5.68;;;24.30;98.90;;;;;;5074059;28;20044;-76
2021/08/12 12:04:43;;;;;;;9.48;5.90;;;24.30;98.20;;;;;;5055682;28;20048;-76
2021/08/12 12:07:49;;;;;;;6.53;4.65;;;24.30;98.80;;;;;;5073284;28;20040;-75
2021/08/12 12:10:34;;;;;;;8.48;5.95;;;24.30;99.90;;;;;;5071535;28;20032;-75
2021/08/12 12:13:21;;;;;;;8.02;5.75;;;24.40;99.90;;;;;;5074541;28;20484;-76
2021/08/12 12:15:49;;;;;;;7.55;5.30;;;24.50;99.90;;;;;;5077805;28;20036;-76
2021/08/12 12:18:30;;;;;;;6.28;5.32;;;24.50;99.90;;;;;;5059833;28;20051;-77
2021/08/12 12:21:06;;;;;;;11.60;6.10;;;24.40;99.90;;;;;;5076110;28;20044;-76
2021/08/12 12:23:46;;;;;;;7.65;5.38;;;24.40;99.90;;;;;;5077357;28;20036;-76
2021/08/12 12:26:24;;;;;;;9.05;6.10;;;24.50;99.90;;;;;;5075795;28;20041;-76
2021/08/12 12:28:57;;;;;;;7.80;5.32;;;24.40;99.90;;;;;;5077051;28;20115;-76
2021/08/12 12:31:38;;;;;;;6.50;4.95;;;24.40;99.90;;;;;;5076822;28;20047;-76
2021/08/12 12:34:13;;;;;;;5.78;4.38;;;24.70;99.90;;;;;;5077377;28;20037;-73
2021/08/12 12:36:48;;;;;;;6.57;4.95;;;24.60;99.10;;;;;;5075822;28;20037;-73
2021/08/12 12:39:20;;;;;;;7.25;4.82;;;24.60;99.90;;;;;;5075356;28;20044;-73
2021/08/12 12:41:58;;;;;;;5.93;4.82;;;24.80;99.90;;;;;;5059349;28;20063;-74
2021/08/12 12:44:41;;;;;;;6.35;4.68;;;24.70;99.80;;;;;;5076900;28;20072;-73
2021/08/12 12:47:43;;;;;;;;;;;;;;;;;;;;;